createdAt,value
2023-12-23T00:02:06.659Z,5.42
2023-12-23T00:04:33.042Z,5.25
2023-12-23T00:06:59.435Z,5.09
2023-12-23T00:09:25.769Z,5.05
2023-12-23T00:11:52.216Z,4.99
2023-12-23T00:14:18.749Z,4.97
2023-12-23T00:16:45.284Z,4.89
2023-12-23T00:19:11.878Z,4.96
2023-12-23T00:21:38.354Z,4.96
2023-12-23T00:24:05.116Z,5.00
2023-12-23T00:26:31.477Z,4.96
2023-12-23T00:28:57.811Z,4.93
2023-12-23T00:31:24.182Z,4.95
2023-12-23T00:33:51.196Z,5.00
2023-12-23T00:36:17.713Z,4.97
2023-12-23T00:38:44.043Z,5.03
2023-12-23T00:41:10.893Z,4.97
2023-12-23T00:43:37.297Z,4.97
2023-12-23T00:46:03.813Z,5.01
2023-12-23T00:48:30.216Z,5.03
2023-12-23T00:50:56.583Z,5.05
2023-12-23T00:53:26.789Z,5.10
2023-12-23T00:55:53.903Z,5.08
2023-12-23T00:58:20.316Z,5.07
2023-12-23T01:00:47.315Z,5.16
2023-12-23T01:03:13.780Z,5.17
2023-12-23T01:05:40.179Z,5.22
2023-12-23T01:08:06.886Z,5.18
2023-12-23T01:10:33.310Z,5.24
2023-12-23T01:12:59.664Z,5.25
2023-12-23T01:15:26.121Z,5.25
2023-12-23T01:17:52.659Z,5.20
2023-12-23T01:20:19.513Z,5.23
2023-12-23T01:22:46.001Z,5.17
2023-12-23T01:25:12.479Z,5.25
2023-12-23T01:27:38.815Z,5.21
2023-12-23T01:30:06.482Z,5.18
2023-12-23T01:32:32.910Z,5.20
2023-12-23T01:34:59.335Z,5.17
2023-12-23T01:37:25.674Z,5.21
2023-12-23T01:39:52.008Z,5.17
2023-12-23T01:42:18.374Z,5.23
2023-12-23T01:44:44.703Z,5.20
2023-12-23T01:47:11.073Z,5.19
2023-12-23T01:49:37.986Z,5.23
2023-12-23T01:52:05.008Z,5.28
2023-12-23T01:54:31.363Z,5.14
2023-12-23T01:56:59.420Z,5.17
2023-12-23T01:59:26.359Z,5.26
2023-12-23T02:01:52.899Z,5.30
2023-12-23T02:04:19.662Z,5.17
2023-12-23T02:06:46.021Z,5.14
2023-12-23T02:09:12.402Z,5.21
2023-12-23T02:12:09.326Z,5.23
2023-12-23T02:15:01.407Z,5.22
2023-12-23T02:17:27.913Z,5.13
2023-12-23T02:19:54.297Z,5.16
2023-12-23T02:22:21.213Z,5.10
2023-12-23T02:24:47.588Z,5.11
2023-12-23T02:27:19.300Z,5.14
2023-12-23T02:29:46.809Z,5.13
2023-12-23T02:32:14.113Z,5.10
2023-12-23T02:34:42.235Z,5.16
2023-12-23T02:37:08.576Z,5.19
2023-12-23T02:39:34.930Z,5.08
2023-12-23T02:42:01.507Z,5.17
2023-12-23T02:44:27.822Z,5.15
2023-12-23T02:46:54.185Z,5.18
2023-12-23T02:49:20.539Z,5.17
2023-12-23T02:51:46.952Z,5.19
2023-12-23T02:54:13.431Z,5.10
2023-12-23T02:56:39.976Z,5.23
2023-12-23T02:59:06.571Z,5.17
2023-12-23T03:01:32.907Z,5.23
2023-12-23T03:03:59.340Z,5.15
2023-12-23T03:06:26.169Z,5.12
2023-12-23T03:08:52.529Z,5.30
2023-12-23T03:11:19.189Z,5.28
2023-12-23T03:13:45.635Z,5.25
2023-12-23T03:16:18.765Z,5.36
2023-12-23T03:18:45.891Z,5.39
2023-12-23T03:21:12.404Z,5.40
2023-12-23T03:23:38.789Z,5.48
2023-12-23T03:26:06.831Z,5.52
2023-12-23T03:28:33.197Z,5.53
2023-12-23T03:30:59.552Z,5.51
2023-12-23T03:33:26.025Z,5.63
2023-12-23T03:35:52.424Z,5.63
2023-12-23T03:38:18.860Z,5.63
2023-12-23T03:40:45.361Z,5.70
2023-12-23T03:43:11.693Z,5.71
2023-12-23T03:45:39.883Z,5.80
2023-12-23T03:48:07.743Z,5.80
2023-12-23T03:50:34.088Z,5.83
2023-12-23T03:53:00.523Z,5.76
2023-12-23T03:55:32.664Z,5.88
2023-12-23T03:58:00.085Z,5.87
2023-12-23T04:00:27.628Z,5.91
2023-12-23T04:02:54.516Z,5.94
2023-12-23T04:05:21.056Z,5.88
2023-12-23T04:07:51.207Z,5.86
2023-12-23T04:10:18.557Z,5.89
2023-12-23T04:12:45.000Z,5.90
2023-12-23T04:15:11.375Z,5.95
2023-12-23T04:17:40.167Z,5.94
2023-12-23T04:20:10.346Z,5.88
2023-12-23T04:22:36.801Z,5.88
2023-12-23T04:25:04.463Z,5.86
2023-12-23T04:27:31.053Z,5.98
2023-12-23T04:29:57.458Z,5.92
2023-12-23T04:32:23.882Z,5.97
2023-12-23T04:34:50.471Z,5.96
2023-12-23T04:37:16.823Z,5.96
2023-12-23T04:39:43.146Z,5.94
2023-12-23T04:42:09.581Z,5.89
2023-12-23T04:44:35.909Z,5.91
2023-12-23T04:47:02.345Z,5.87
2023-12-23T04:49:28.692Z,5.95
2023-12-23T04:51:55.015Z,5.88
2023-12-23T04:54:21.363Z,6.03
2023-12-23T04:56:47.702Z,6.07
2023-12-23T04:59:14.093Z,5.94
2023-12-23T05:01:40.502Z,5.92
2023-12-23T05:04:06.832Z,5.94
2023-12-23T05:06:33.211Z,5.95
2023-12-23T05:08:59.546Z,5.99
2023-12-23T05:11:25.939Z,5.95
2023-12-23T05:13:52.314Z,6.01
2023-12-23T05:16:18.686Z,6.14
2023-12-23T05:18:45.314Z,6.12
2023-12-23T05:21:11.714Z,6.13
2023-12-23T05:23:38.058Z,6.08
2023-12-23T05:26:04.550Z,6.12
2023-12-23T05:28:30.961Z,6.07
2023-12-23T05:30:57.459Z,6.09
2023-12-23T05:33:25.794Z,6.13
2023-12-23T05:35:52.719Z,6.12
2023-12-23T05:38:19.290Z,6.21
2023-12-23T05:40:45.985Z,6.26
2023-12-23T05:43:12.392Z,6.27
2023-12-23T05:45:38.717Z,6.26
2023-12-23T05:48:05.821Z,6.19
2023-12-23T05:50:32.335Z,6.27
2023-12-23T05:52:58.738Z,6.20
2023-12-23T05:55:25.109Z,6.23
2023-12-23T05:57:51.449Z,6.21
2023-12-23T06:00:20.681Z,6.24
2023-12-23T06:02:47.232Z,6.20
2023-12-23T06:05:13.746Z,6.31
2023-12-23T06:07:40.131Z,6.26
2023-12-23T06:10:07.325Z,6.32
2023-12-23T06:12:33.672Z,6.32
2023-12-23T06:15:00.019Z,6.36
2023-12-23T06:17:27.107Z,6.34
2023-12-23T06:19:53.634Z,6.31
2023-12-23T06:22:20.038Z,6.34
2023-12-23T06:24:46.436Z,6.34
2023-12-23T06:27:13.292Z,6.42
2023-12-23T06:29:39.659Z,6.35
2023-12-23T06:32:06.266Z,6.38
2023-12-23T06:34:32.605Z,6.34
2023-12-23T06:36:58.946Z,6.31
2023-12-23T06:39:25.375Z,6.25
2023-12-23T06:41:51.713Z,6.33
2023-12-23T06:44:18.092Z,6.28
2023-12-23T06:46:44.834Z,6.29
2023-12-23T06:49:11.498Z,6.31
2023-12-23T06:51:37.932Z,6.29
2023-12-23T06:54:04.265Z,6.36
2023-12-23T06:56:30.607Z,6.33
2023-12-23T06:58:57.017Z,6.41
2023-12-23T07:01:23.539Z,6.38
2023-12-23T07:03:49.927Z,6.37
2023-12-23T07:06:16.307Z,6.36
2023-12-23T07:08:42.731Z,6.37
2023-12-23T07:11:12.320Z,6.35
2023-12-23T07:13:38.739Z,6.37
2023-12-23T07:16:05.780Z,6.35
2023-12-23T07:18:32.238Z,6.41
2023-12-23T07:20:58.718Z,6.36
2023-12-23T07:23:25.126Z,6.29
2023-12-23T07:25:51.519Z,6.28
2023-12-23T07:28:17.887Z,6.36
2023-12-23T07:30:46.478Z,6.25
2023-12-23T07:33:14.366Z,6.25
2023-12-23T07:35:40.847Z,6.32
2023-12-23T07:38:07.413Z,6.36
2023-12-23T07:40:36.177Z,6.31
2023-12-23T07:43:03.488Z,6.26
2023-12-23T07:45:29.881Z,6.31
2023-12-23T07:47:56.281Z,6.31
2023-12-23T07:50:24.019Z,6.28
2023-12-23T07:52:50.729Z,6.32
2023-12-23T07:55:17.247Z,6.34
2023-12-23T07:57:43.853Z,6.32
2023-12-23T08:00:10.829Z,6.34
2023-12-23T08:02:37.184Z,6.35
2023-12-23T08:05:05.774Z,6.34
2023-12-23T08:07:33.148Z,6.27
2023-12-23T08:09:59.543Z,6.27
2023-12-23T08:12:25.920Z,6.35
2023-12-23T08:14:52.276Z,6.35
2023-12-23T08:17:18.693Z,6.39
2023-12-23T08:19:45.130Z,6.32
2023-12-23T08:22:11.498Z,6.36
2023-12-23T08:24:37.828Z,6.34
2023-12-23T08:27:04.346Z,6.41
2023-12-23T08:29:30.734Z,6.46
2023-12-23T08:31:57.140Z,6.40
2023-12-23T08:34:23.671Z,6.36
2023-12-23T08:36:50.436Z,6.46
2023-12-23T08:39:16.785Z,6.45
2023-12-23T08:41:43.140Z,6.43
2023-12-23T08:44:09.564Z,6.36
2023-12-23T08:46:35.992Z,6.34
2023-12-23T08:49:02.577Z,6.36
2023-12-23T08:51:32.760Z,6.32
2023-12-23T08:53:59.198Z,6.37
2023-12-23T08:56:25.562Z,6.44
2023-12-23T08:58:51.964Z,6.31
2023-12-23T09:01:18.449Z,6.43
2023-12-23T09:03:44.860Z,6.43
2023-12-23T09:06:13.510Z,6.36
2023-12-23T09:08:40.230Z,6.38
2023-12-23T09:11:06.708Z,6.45
2023-12-23T09:13:33.072Z,6.44
2023-12-23T09:16:02.376Z,6.37
2023-12-23T09:18:28.822Z,6.40
2023-12-23T09:20:55.181Z,6.45
2023-12-23T09:23:21.543Z,6.40
2023-12-23T09:25:47.902Z,6.36
2023-12-23T09:28:15.011Z,6.42
2023-12-23T09:30:41.374Z,6.43
2023-12-23T09:33:07.959Z,6.37
2023-12-23T09:35:34.468Z,6.51
2023-12-23T09:38:00.877Z,6.41
2023-12-23T09:40:27.326Z,6.46
2023-12-23T09:42:53.829Z,6.45
2023-12-23T09:45:22.120Z,6.48
2023-12-23T09:47:49.275Z,6.53
2023-12-23T09:50:16.047Z,6.50
2023-12-23T09:52:42.671Z,6.49
2023-12-23T09:55:10.767Z,6.52
2023-12-23T09:57:37.699Z,6.58
2023-12-23T10:00:04.847Z,6.58
2023-12-23T10:02:31.239Z,6.60
2023-12-23T10:04:57.695Z,6.61
2023-12-23T10:07:24.113Z,6.58
2023-12-23T10:09:51.148Z,6.67
2023-12-23T10:12:18.013Z,6.63
2023-12-23T10:14:45.072Z,6.70
2023-12-23T10:17:11.905Z,6.75
2023-12-23T10:19:38.270Z,6.76
2023-12-23T10:22:05.433Z,6.77
2023-12-23T10:24:31.840Z,6.89
2023-12-23T10:26:59.967Z,6.90
2023-12-23T10:29:31.466Z,6.90
2023-12-23T10:32:05.641Z,6.93
2023-12-23T10:34:44.005Z,6.91
2023-12-23T10:37:14.146Z,6.92
2023-12-23T10:39:50.025Z,6.96
2023-12-23T10:42:21.218Z,7.02
2023-12-23T10:44:49.395Z,7.00
2023-12-23T10:47:16.721Z,7.04
2023-12-23T10:49:46.296Z,7.06
2023-12-23T10:52:14.676Z,7.04
2023-12-23T10:54:41.124Z,7.02
2023-12-23T10:57:09.031Z,7.04
2023-12-23T10:59:35.569Z,7.04
2023-12-23T11:02:13.612Z,6.94
2023-12-23T11:04:42.503Z,6.98
2023-12-23T11:07:12.452Z,7.06
2023-12-23T11:09:40.585Z,7.03
2023-12-23T11:12:07.674Z,6.93
2023-12-23T11:14:34.061Z,6.94
2023-12-23T11:17:00.549Z,6.93
2023-12-23T11:19:26.961Z,6.90
2023-12-23T11:22:23.350Z,6.91
2023-12-23T11:24:49.731Z,6.97
2023-12-23T11:27:36.161Z,7.03
2023-12-23T11:30:07.406Z,7.02
2023-12-23T11:32:38.404Z,7.12
2023-12-23T11:35:06.668Z,7.06
2023-12-23T11:37:54.439Z,7.11
2023-12-23T11:40:22.307Z,7.08
2023-12-23T11:42:50.527Z,7.13
2023-12-23T11:45:17.790Z,7.16
2023-12-23T11:47:44.220Z,7.11
2023-12-23T11:50:11.267Z,7.21
2023-12-23T11:52:37.787Z,7.17
2023-12-23T11:55:04.876Z,7.25
2023-12-23T11:57:32.643Z,7.24
2023-12-23T12:00:00.318Z,7.26
2023-12-23T12:02:27.166Z,7.25
2023-12-23T12:04:53.846Z,7.29
2023-12-23T12:07:21.646Z,7.25
2023-12-23T12:09:47.991Z,7.29
2023-12-23T12:12:14.452Z,7.30
2023-12-23T12:14:41.584Z,7.36
2023-12-23T12:17:10.173Z,7.33
2023-12-23T12:19:36.842Z,7.35
2023-12-23T12:22:04.636Z,7.30
2023-12-23T12:24:31.529Z,7.30
2023-12-23T12:26:58.100Z,7.28
2023-12-23T12:29:25.229Z,7.26
2023-12-23T12:31:52.522Z,7.31
2023-12-23T12:34:19.729Z,7.30
2023-12-23T12:36:46.185Z,7.30
2023-12-23T12:39:14.774Z,7.18
2023-12-23T12:41:43.893Z,7.28
2023-12-23T12:44:10.300Z,7.28
2023-12-23T12:46:37.148Z,7.32
2023-12-23T12:49:05.990Z,7.30
2023-12-23T12:51:33.527Z,7.34
2023-12-23T12:54:00.777Z,7.42
2023-12-23T12:56:27.191Z,7.35
2023-12-23T12:58:53.804Z,7.39
2023-12-23T13:01:21.905Z,7.41
2023-12-23T13:03:48.909Z,7.44
2023-12-23T13:06:15.496Z,7.50
2023-12-23T13:08:41.875Z,7.48
2023-12-23T13:11:08.730Z,7.56
2023-12-23T13:13:35.136Z,7.50
2023-12-23T13:16:03.726Z,7.59
2023-12-23T13:18:32.822Z,7.63
2023-12-23T13:21:00.508Z,7.54
2023-12-23T13:23:27.299Z,7.59
2023-12-23T13:25:53.676Z,7.54
2023-12-23T13:28:20.246Z,7.60
2023-12-23T13:30:46.636Z,7.60
2023-12-23T13:33:13.022Z,7.60
2023-12-23T13:35:40.389Z,7.60
2023-12-23T13:38:06.793Z,7.59
2023-12-23T13:40:33.812Z,7.62
2023-12-23T13:43:00.170Z,7.66
2023-12-23T13:45:26.515Z,7.62
2023-12-23T13:47:53.888Z,7.53
2023-12-23T13:50:20.652Z,7.50
2023-12-23T13:52:47.181Z,7.48
2023-12-23T13:55:13.570Z,7.43
2023-12-23T13:57:39.895Z,7.46
2023-12-23T14:00:07.762Z,7.46
2023-12-23T14:02:34.098Z,7.33
2023-12-23T14:05:00.483Z,7.37
2023-12-23T14:07:26.864Z,7.36
2023-12-23T14:09:53.225Z,7.37
2023-12-23T14:12:19.637Z,7.29
2023-12-23T14:14:46.536Z,7.22
2023-12-23T14:17:12.990Z,7.13
2023-12-23T14:19:39.377Z,7.26
2023-12-23T14:22:08.560Z,7.19
2023-12-23T14:24:35.018Z,7.15
2023-12-23T14:27:01.834Z,7.17
2023-12-23T14:29:28.254Z,7.17
2023-12-23T14:31:54.588Z,7.18
2023-12-23T14:34:20.955Z,7.18
2023-12-23T14:36:49.593Z,7.14
2023-12-23T14:39:21.268Z,7.13
2023-12-23T14:41:49.090Z,7.04
2023-12-23T14:44:15.532Z,7.06
2023-12-23T14:46:43.108Z,7.11
2023-12-23T14:49:10.303Z,7.15
2023-12-23T14:51:37.421Z,7.20
2023-12-23T14:54:03.794Z,7.09
2023-12-23T14:56:30.346Z,7.06
2023-12-23T14:58:56.791Z,7.03
2023-12-23T15:01:23.169Z,7.10
2023-12-23T15:03:52.606Z,7.07
2023-12-23T15:06:19.821Z,7.08
2023-12-23T15:08:46.318Z,6.96
2023-12-23T15:11:12.695Z,6.96
2023-12-23T15:13:41.254Z,6.99
2023-12-23T15:16:09.344Z,6.96
2023-12-23T15:18:36.225Z,7.09
2023-12-23T15:21:03.116Z,7.11
2023-12-23T15:23:29.523Z,7.01
2023-12-23T15:25:55.948Z,6.97
2023-12-23T15:28:22.272Z,6.93
2023-12-23T15:30:48.748Z,6.99
2023-12-23T15:33:15.656Z,6.94
2023-12-23T15:35:42.113Z,6.90
2023-12-23T15:38:08.522Z,6.96
2023-12-23T15:40:34.901Z,6.93
2023-12-23T15:43:01.231Z,6.96
2023-12-23T15:45:27.565Z,6.91
2023-12-23T15:47:54.010Z,6.87
2023-12-23T15:50:20.610Z,6.89
2023-12-23T15:52:47.064Z,6.90
2023-12-23T15:55:13.786Z,6.89
2023-12-23T15:57:40.119Z,6.87
2023-12-23T16:00:07.334Z,6.78
2023-12-23T16:02:33.786Z,6.81
2023-12-23T16:05:00.417Z,6.83
2023-12-23T16:07:28.011Z,6.86
2023-12-23T16:09:54.485Z,6.85
2023-12-23T16:12:20.889Z,6.87
2023-12-23T16:14:47.268Z,6.89
2023-12-23T16:17:13.718Z,6.90
2023-12-23T16:19:40.101Z,7.05
2023-12-23T16:22:06.445Z,7.09
2023-12-23T16:24:33.097Z,7.14
2023-12-23T16:26:59.707Z,7.09
2023-12-23T16:29:26.295Z,7.21
2023-12-23T16:31:52.851Z,7.19
2023-12-23T16:34:19.572Z,7.27
2023-12-23T16:36:46.443Z,7.34
2023-12-23T16:39:12.867Z,7.32
2023-12-23T16:41:39.202Z,7.29
2023-12-23T16:44:06.358Z,7.21
2023-12-23T16:46:32.752Z,7.21
2023-12-23T16:48:59.248Z,7.21
2023-12-23T16:51:25.639Z,7.18
2023-12-23T16:53:52.060Z,7.05
2023-12-23T16:56:18.414Z,7.13
2023-12-23T16:58:44.787Z,7.01
2023-12-23T17:01:13.513Z,7.04
2023-12-23T17:03:40.267Z,7.02
2023-12-23T17:06:07.273Z,7.04
2023-12-23T17:08:33.754Z,6.95
2023-12-23T17:11:00.139Z,7.04
2023-12-23T17:13:26.669Z,7.03
2023-12-23T17:15:53.041Z,7.12
2023-12-23T17:18:19.383Z,7.06
2023-12-23T17:20:45.807Z,6.98
2023-12-23T17:23:12.357Z,7.07
2023-12-23T17:25:38.812Z,6.97
2023-12-23T17:28:10.298Z,6.96
2023-12-23T17:30:38.330Z,7.15
2023-12-23T17:33:05.775Z,7.10
2023-12-23T17:35:32.231Z,7.10
2023-12-23T17:38:00.435Z,7.08
2023-12-23T17:40:26.903Z,7.08
2023-12-23T17:42:53.454Z,7.09
2023-12-23T17:45:20.014Z,7.09
2023-12-23T17:47:46.448Z,7.06
2023-12-23T17:50:14.227Z,7.09
2023-12-23T17:52:40.609Z,7.06
2023-12-23T17:55:07.215Z,7.08
2023-12-23T17:57:33.576Z,7.10
2023-12-23T17:59:59.895Z,6.95
2023-12-23T18:02:29.495Z,6.92
2023-12-23T18:04:56.636Z,6.98
2023-12-23T18:07:23.097Z,6.93
2023-12-23T18:09:49.439Z,6.94
2023-12-23T18:12:15.764Z,6.99
2023-12-23T18:14:42.093Z,6.91
2023-12-23T18:17:08.434Z,6.89
2023-12-23T18:19:34.787Z,6.94
2023-12-23T18:22:02.801Z,6.90
2023-12-23T18:24:29.419Z,6.84
2023-12-23T18:26:55.764Z,6.86
2023-12-23T18:29:22.127Z,6.97
2023-12-23T18:31:48.661Z,6.93
2023-12-23T18:34:15.213Z,6.86
2023-12-23T18:36:41.710Z,6.89
2023-12-23T18:39:08.081Z,6.87
2023-12-23T18:41:34.512Z,6.85
2023-12-23T18:44:01.812Z,6.88
2023-12-23T18:46:28.863Z,6.88
2023-12-23T18:48:55.277Z,7.02
2023-12-23T18:51:21.630Z,7.03
2023-12-23T18:53:48.002Z,6.92
2023-12-23T18:56:17.044Z,6.99
2023-12-23T18:58:43.765Z,6.98
2023-12-23T19:01:10.128Z,7.05
2023-12-23T19:03:36.554Z,7.00
2023-12-23T19:06:04.136Z,7.04
2023-12-23T19:08:30.550Z,7.11
2023-12-23T19:10:58.407Z,7.09
2023-12-23T19:13:25.676Z,7.13
2023-12-23T19:15:52.023Z,7.15
2023-12-23T19:18:18.531Z,7.15
2023-12-23T19:20:45.082Z,7.14
2023-12-23T19:23:11.468Z,7.20
2023-12-23T19:25:37.879Z,7.13
2023-12-23T19:28:05.617Z,7.23
2023-12-23T19:30:32.188Z,7.15
2023-12-23T19:32:58.738Z,7.15
2023-12-23T19:35:25.208Z,7.20
2023-12-23T19:37:52.756Z,7.19
2023-12-23T19:40:19.177Z,7.12
2023-12-23T19:42:45.495Z,7.20
2023-12-23T19:45:14.477Z,7.29
2023-12-23T19:47:41.836Z,7.28
2023-12-23T19:50:08.413Z,7.26
2023-12-23T19:52:34.782Z,7.27
2023-12-23T19:55:01.141Z,7.31
2023-12-23T19:57:27.517Z,7.31
2023-12-23T19:59:53.899Z,7.28
2023-12-23T20:02:20.440Z,7.12
2023-12-23T20:04:46.821Z,7.22
2023-12-23T20:07:13.393Z,7.14
2023-12-23T20:09:39.871Z,7.10
2023-12-23T20:12:07.801Z,7.09
2023-12-23T20:14:35.721Z,7.21
2023-12-23T20:17:02.251Z,7.17
2023-12-23T20:19:28.708Z,7.26
2023-12-23T20:21:55.785Z,7.27
2023-12-23T20:24:23.040Z,7.18
2023-12-23T20:26:49.785Z,7.25
2023-12-23T20:29:16.195Z,7.12
2023-12-23T20:31:42.663Z,7.15
2023-12-23T20:34:10.418Z,7.09
2023-12-23T20:36:44.414Z,7.06
2023-12-23T20:39:10.930Z,7.11
2023-12-23T20:41:40.552Z,7.06
2023-12-23T20:44:08.659Z,7.03
2023-12-23T20:46:35.088Z,7.08
2023-12-23T20:49:01.471Z,7.05
2023-12-23T20:51:27.864Z,7.04
2023-12-23T20:53:54.196Z,7.08
2023-12-23T20:56:22.552Z,7.13
2023-12-23T20:58:48.998Z,7.15
2023-12-23T21:01:23.624Z,7.07
2023-12-23T21:03:54.456Z,7.16
2023-12-23T21:06:21.110Z,7.17
2023-12-23T21:08:49.216Z,7.01
2023-12-23T21:11:17.292Z,7.14
2023-12-23T21:13:44.412Z,7.11
2023-12-23T21:16:11.363Z,7.08
2023-12-23T21:18:43.029Z,7.11
2023-12-23T21:21:11.485Z,7.09
2023-12-23T21:23:37.925Z,7.08
2023-12-23T21:26:04.420Z,7.15
2023-12-23T21:28:30.746Z,7.12
2023-12-23T21:30:57.748Z,7.12
2023-12-23T21:33:24.640Z,7.10
2023-12-23T21:35:51.974Z,7.13
2023-12-23T21:38:21.312Z,7.15
2023-12-23T21:40:51.401Z,7.15
2023-12-23T21:43:17.832Z,7.25
2023-12-23T21:45:44.583Z,7.22
2023-12-23T21:48:10.963Z,7.14
2023-12-23T21:50:37.453Z,7.21
2023-12-23T21:53:05.194Z,7.23
2023-12-23T21:55:31.655Z,7.16
2023-12-23T21:57:58.073Z,7.20
2023-12-23T22:00:24.439Z,7.20
2023-12-23T22:02:51.161Z,7.32
2023-12-23T22:05:17.944Z,7.29
2023-12-23T22:07:44.346Z,7.18
2023-12-23T22:10:11.729Z,7.12
2023-12-23T22:12:38.102Z,7.15
2023-12-23T22:15:04.761Z,7.06
2023-12-23T22:17:31.158Z,7.04
2023-12-23T22:19:57.664Z,6.97
2023-12-23T22:22:24.099Z,6.88
2023-12-23T22:24:52.170Z,6.96
2023-12-23T22:27:18.517Z,6.90
2023-12-23T22:29:45.114Z,6.92
2023-12-23T22:32:11.465Z,6.81
2023-12-23T22:34:37.812Z,6.76
2023-12-23T22:37:04.803Z,6.81
2023-12-23T22:39:31.188Z,6.77
2023-12-23T22:41:57.555Z,6.72
2023-12-23T22:44:24.546Z,6.80
2023-12-23T22:46:51.024Z,6.84
2023-12-23T22:49:18.246Z,6.84
2023-12-23T22:51:44.585Z,6.80
2023-12-23T22:54:10.915Z,6.82
2023-12-23T22:56:41.181Z,6.83
2023-12-23T22:59:08.053Z,6.71
2023-12-23T23:01:34.545Z,6.79
2023-12-23T23:04:00.914Z,6.82
2023-12-23T23:06:27.343Z,6.89
2023-12-23T23:08:53.752Z,6.90
2023-12-23T23:11:20.270Z,6.99
2023-12-23T23:13:46.625Z,6.94
2023-12-23T23:16:12.947Z,6.91
2023-12-23T23:18:42.394Z,6.84
2023-12-23T23:21:09.040Z,7.00
2023-12-23T23:23:36.004Z,6.96
2023-12-23T23:26:02.416Z,6.88
2023-12-23T23:28:28.759Z,6.95
2023-12-23T23:30:55.886Z,6.89
2023-12-23T23:33:22.299Z,6.94
2023-12-23T23:35:49.402Z,6.93
2023-12-23T23:38:15.940Z,6.95
2023-12-23T23:40:42.387Z,6.95
2023-12-23T23:43:08.722Z,6.92
2023-12-23T23:45:35.058Z,7.02
2023-12-23T23:48:01.406Z,7.11
2023-12-23T23:50:27.780Z,7.10
2023-12-23T23:52:54.306Z,7.16
2023-12-23T23:55:20.770Z,7.13
2023-12-23T23:57:47.116Z,7.18
